Time;durP1;ratioP1;P1;durP2;ratioP2;P2;SDS_P1;SDS_P2;PMS_P1;PMS_P2;Temp;Humidity;BMP_temperature;BMP_pressure;BME280_temperature;BME280_humidity;BME280_pressure;Samples;Min_cycle;Max_cycle;Signal;HPM_P1;HPM_P2
2022/10/23 00:02:11;;;;;;;23.25;15.00;;;;;;;;;;5135375;27;20111;-72
2022/10/23 00:04:57;;;;;;;22.38;14.65;;;;;;;;;;5135329;27;20038;-73
2022/10/23 00:07:43;;;;;;;21.70;14.35;;;;;;;;;;5121671;27;20079;-72
2022/10/23 00:10:28;;;;;;;28.15;15.00;;;;;;;;;;5135261;27;20401;-73
2022/10/23 00:13:14;;;;;;;20.25;14.48;;;;;;;;;;5135718;27;20038;-73
2022/10/23 00:15:59;;;;;;;23.65;15.57;;;;;;;;;;5136441;27;20032;-73
2022/10/23 00:18:45;;;;;;;25.75;14.07;;;;;;;;;;5136108;27;20064;-72
2022/10/23 00:21:31;;;;;;;21.55;13.85;;;;;;;;;;5136608;27;20488;-72
2022/10/23 00:24:16;;;;;;;21.63;13.73;;;;;;;;;;5134658;27;20023;-72
2022/10/23 00:27:02;;;;;;;25.63;14.52;;;;;;;;;;5135183;27;20437;-72
2022/10/23 00:29:47;;;;;;;22.40;14.60;;;;;;;;;;5120334;27;20033;-73
2022/10/23 00:32:33;;;;;;;23.30;14.45;;;;;;;;;;5135229;27;20026;-74
2022/10/23 00:35:19;;;;;;;23.45;14.07;;;;;;;;;;5135357;27;20409;-72
2022/10/23 00:38:04;;;;;;;26.63;15.23;;;;;;;;;;5134205;27;20047;-73
2022/10/23 00:40:50;;;;;;;22.90;14.38;;;;;;;;;;5134789;27;20071;-73
2022/10/23 00:43:53;;;;;;;19.77;13.80;;;;;;;;;;5135012;27;20476;-72
2022/10/23 00:46:39;;;;;;;20.20;14.25;;;;;;;;;;5134707;27;20022;-73
2022/10/23 00:49:24;;;;;;;21.33;14.18;;;;;;;;;;5134812;27;20114;-72
2022/10/23 00:52:12;;;;;;;18.50;13.48;;;;;;;;;;5134668;27;20440;-74
2022/10/23 00:54:57;;;;;;;23.70;14.38;;;;;;;;;;5134743;28;20023;-73
2022/10/23 00:57:44;;;;;;;20.52;14.50;;;;;;;;;;5134443;28;20015;-72
2022/10/23 01:00:39;;;;;;;21.23;13.88;;;;;;;;;;5133946;28;20015;-72
2022/10/23 01:03:26;;;;;;;20.33;14.15;;;;;;;;;;5134345;28;20065;-73
2022/10/23 01:06:30;;;;;;;26.73;14.70;;;;;;;;;;5120018;28;20023;-73
2022/10/23 01:09:15;;;;;;;22.00;14.02;;;;;;;;;;5134024;28;20015;-73
2022/10/23 01:12:07;;;;;;;22.88;14.48;;;;;;;;;;5120781;28;20474;-73
2022/10/23 01:15:02;;;;;;;21.23;14.32;;;;;;;;;;5136014;28;20019;-72
2022/10/23 01:17:51;;;;;;;20.63;14.48;;;;;;;;;;5119655;28;20441;-72
2022/10/23 01:20:36;;;;;;;20.63;14.18;;;;;;;;;;5134113;28;20096;-73
2022/10/23 01:23:35;;;;;;;23.02;14.25;;;;;;;;;;5134857;28;20398;-72
2022/10/23 01:26:32;;;;;;;21.15;14.00;;;;;;;;;;5135883;28;20011;-72
2022/10/23 01:29:27;;;;;;;24.50;14.82;;;;;;;;;;5133898;28;20015;-73
2022/10/23 01:32:18;;;;;;;20.80;14.73;;;;;;;;;;5134476;28;20027;-72
2022/10/23 01:35:07;;;;;;;26.85;16.30;;;;;;;;;;5134166;28;20023;-72
2022/10/23 01:37:55;;;;;;;25.08;16.45;;;;;;;;;;5133748;28;20122;-73
2022/10/23 01:40:47;;;;;;;23.52;15.85;;;;;;;;;;5135918;28;20011;-73
2022/10/23 01:43:48;;;;;;;21.60;15.48;;;;;;;;;;5119861;28;20353;-72
2022/10/23 01:46:36;;;;;;;26.65;15.65;;;;;;;;;;5134183;28;20402;-73
2022/10/23 01:49:23;;;;;;;23.98;14.98;;;;;;;;;;5134713;27;20156;-73
2022/10/23 01:52:10;;;;;;;24.50;15.60;;;;;;;;;;5137636;27;20023;-72
2022/10/23 01:54:58;;;;;;;23.92;14.10;;;;;;;;;;5137007;27;20019;-72
2022/10/23 01:57:44;;;;;;;23.77;14.57;;;;;;;;;;5124011;27;20023;-72
2022/10/23 02:00:30;;;;;;;26.42;15.30;;;;;;;;;;5123047;27;20326;-74
2022/10/23 02:03:16;;;;;;;24.45;14.68;;;;;;;;;;5137547;27;20375;-73
2022/10/23 02:06:02;;;;;;;24.00;15.27;;;;;;;;;;5137536;27;20128;-72
2022/10/23 02:08:48;;;;;;;21.35;14.52;;;;;;;;;;5137835;27;20032;-73
2022/10/23 02:11:36;;;;;;;27.00;15.23;;;;;;;;;;5137474;27;20038;-73
2022/10/23 02:14:27;;;;;;;24.77;14.98;;;;;;;;;;5137303;27;20500;-73
2022/10/23 02:17:23;;;;;;;22.70;14.98;;;;;;;;;;5136402;27;20019;-73
2022/10/23 02:20:16;;;;;;;23.40;14.57;;;;;;;;;;5137179;27;20023;-72
2022/10/23 02:23:04;;;;;;;23.60;13.88;;;;;;;;;;5137515;27;20305;-72
2022/10/23 02:25:49;;;;;;;22.55;14.18;;;;;;;;;;5137069;27;20043;-73
2022/10/23 02:28:44;;;;;;;21.90;14.40;;;;;;;;;;5137041;27;20406;-72
2022/10/23 02:31:30;;;;;;;18.85;13.60;;;;;;;;;;5122238;27;20059;-72
2022/10/23 02:34:16;;;;;;;23.23;14.13;;;;;;;;;;5136564;27;20537;-73
2022/10/23 02:37:02;;;;;;;23.48;13.80;;;;;;;;;;5136810;27;20516;-72
2022/10/23 02:39:48;;;;;;;18.85;13.50;;;;;;;;;;5136902;27;20039;-72
2022/10/23 02:42:48;;;;;;;23.70;13.50;;;;;;;;;;5137289;27;20094;-73
2022/10/23 02:45:45;;;;;;;21.63;13.02;;;;;;;;;;5149836;27;20012;-70
2022/10/23 02:48:35;;;;;;;20.70;13.55;;;;;;;;;;5140107;27;20403;-71
2022/10/23 02:51:24;;;;;;;18.45;12.35;;;;;;;;;;5136963;27;20019;-72
2022/10/23 02:54:24;;;;;;;21.48;12.63;;;;;;;;;;5136539;27;20087;-73
2022/10/23 02:57:23;;;;;;;18.27;12.73;;;;;;;;;;5136589;27;20019;-73
2022/10/23 03:00:11;;;;;;;22.05;13.02;;;;;;;;;;5136476;27;20011;-73
2022/10/23 03:03:05;;;;;;;21.85;12.85;;;;;;;;;;5136452;27;20050;-72
2022/10/23 03:05:51;;;;;;;23.75;12.50;;;;;;;;;;5138659;27;20394;-72
2022/10/23 03:08:41;;;;;;;21.63;12.73;;;;;;;;;;5136101;27;20025;-73
2022/10/23 03:11:26;;;;;;;19.23;12.77;;;;;;;;;;5137196;27;20016;-72
2022/10/23 03:14:12;;;;;;;18.67;12.52;;;;;;;;;;5148118;27;20090;-73
2022/10/23 03:16:57;;;;;;;19.17;13.32;;;;;;;;;;5137972;27;20044;-73
2022/10/23 03:19:43;;;;;;;19.60;12.38;;;;;;;;;;5136759;27;20046;-72
2022/10/23 03:22:29;;;;;;;21.13;12.65;;;;;;;;;;5137225;27;20027;-72
2022/10/23 03:25:14;;;;;;;22.55;13.02;;;;;;;;;;5122847;27;20053;-72
2022/10/23 03:28:00;;;;;;;19.23;13.10;;;;;;;;;;5136691;27;20356;-74
2022/10/23 03:30:45;;;;;;;16.67;11.57;;;;;;;;;;5122428;27;20035;-73
2022/10/23 03:33:31;;;;;;;18.15;12.13;;;;;;;;;;5136040;27;20020;-74
2022/10/23 03:36:17;;;;;;;24.85;13.30;;;;;;;;;;5135134;27;20083;-73
2022/10/23 03:39:03;;;;;;;20.42;14.05;;;;;;;;;;5135654;27;20437;-72
2022/10/23 03:41:48;;;;;;;20.30;13.02;;;;;;;;;;5135900;27;20393;-73
2022/10/23 03:44:34;;;;;;;22.55;13.95;;;;;;;;;;5134989;27;20023;-73
2022/10/23 03:47:19;;;;;;;20.67;14.25;;;;;;;;;;5134812;27;20016;-73
2022/10/23 03:50:08;;;;;;;20.67;14.38;;;;;;;;;;5136673;27;20030;-74
2022/10/23 03:52:54;;;;;;;30.90;15.10;;;;;;;;;;5135230;27;20034;-73
2022/10/23 03:55:39;;;;;;;28.15;16.00;;;;;;;;;;5121879;27;20058;-73
2022/10/23 03:58:25;;;;;;;26.67;15.55;;;;;;;;;;5120611;27;20019;-73
2022/10/23 04:01:11;;;;;;;26.95;15.40;;;;;;;;;;5120926;27;20330;-73
2022/10/23 04:03:56;;;;;;;27.08;15.93;;;;;;;;;;5121367;27;20038;-73
2022/10/23 04:06:42;;;;;;;30.30;16.35;;;;;;;;;;5135837;27;20076;-73
2022/10/23 04:09:27;;;;;;;28.05;15.52;;;;;;;;;;5134669;27;20026;-73
2022/10/23 04:12:13;;;;;;;24.23;14.32;;;;;;;;;;5121665;27;20030;-73
2022/10/23 04:14:59;;;;;;;19.65;13.52;;;;;;;;;;5135897;27;20470;-73
2022/10/23 04:17:44;;;;;;;90.50;17.38;;;;;;;;;;5135947;27;20034;-74
2022/10/23 04:20:30;;;;;;;24.17;13.98;;;;;;;;;;5135445;27;20027;-73
2022/10/23 04:23:16;;;;;;;22.23;13.10;;;;;;;;;;5134633;27;20008;-73
2022/10/23 04:26:02;;;;;;;23.42;13.13;;;;;;;;;;5134301;27;20019;-73
2022/10/23 04:28:47;;;;;;;21.02;13.20;;;;;;;;;;5134420;27;20080;-73
2022/10/23 04:31:33;;;;;;;24.20;13.35;;;;;;;;;;5135189;27;20475;-73
2022/10/23 04:34:19;;;;;;;22.05;12.45;;;;;;;;;;5134778;27;20083;-73
2022/10/23 04:37:04;;;;;;;29.65;13.90;;;;;;;;;;5134973;27;20055;-74
2022/10/23 04:39:50;;;;;;;27.63;13.63;;;;;;;;;;5136507;27;20047;-73
2022/10/23 04:42:35;;;;;;;23.13;12.63;;;;;;;;;;5120510;27;20051;-72
2022/10/23 04:45:21;;;;;;;24.05;12.93;;;;;;;;;;5120796;28;20026;-73
2022/10/23 04:48:06;;;;;;;24.15;13.90;;;;;;;;;;5135815;27;20023;-73
2022/10/23 04:50:56;;;;;;;24.75;13.88;;;;;;;;;;5135086;27;20509;-73
2022/10/23 04:53:42;;;;;;;20.05;13.50;;;;;;;;;;5134372;27;20027;-74
2022/10/23 04:56:28;;;;;;;21.45;13.00;;;;;;;;;;5135171;28;20157;-74
2022/10/23 04:59:13;;;;;;;24.17;13.27;;;;;;;;;;5133973;28;20023;-74
2022/10/23 05:01:59;;;;;;;22.25;12.50;;;;;;;;;;5136250;28;20115;-73
2022/10/23 05:04:44;;;;;;;27.27;12.00;;;;;;;;;;5135999;28;20514;-73
2022/10/23 05:07:30;;;;;;;30.42;11.88;;;;;;;;;;5134724;28;20046;-73
2022/10/23 05:10:15;;;;;;;20.67;12.10;;;;;;;;;;5134095;28;20357;-73
2022/10/23 05:13:01;;;;;;;25.42;12.57;;;;;;;;;;5135554;28;20027;-73
2022/10/23 05:15:50;;;;;;;30.85;12.98;;;;;;;;;;5119865;28;20039;-74
2022/10/23 05:18:43;;;;;;;21.48;12.52;;;;;;;;;;5134393;28;20019;-73
2022/10/23 05:21:31;;;;;;;20.95;12.63;;;;;;;;;;5135136;28;20328;-72
2022/10/23 05:24:16;;;;;;;24.13;12.50;;;;;;;;;;5135679;27;20015;-73
2022/10/23 05:27:02;;;;;;;24.08;12.63;;;;;;;;;;5139306;27;20090;-74
2022/10/23 05:29:47;;;;;;;21.73;13.20;;;;;;;;;;5139901;27;20441;-73
2022/10/23 05:32:33;;;;;;;24.25;12.70;;;;;;;;;;5138962;27;20091;-73
2022/10/23 05:35:20;;;;;;;21.55;13.40;;;;;;;;;;5138248;27;20425;-73
2022/10/23 05:38:07;;;;;;;23.08;13.38;;;;;;;;;;5138028;27;20058;-73
2022/10/23 05:40:53;;;;;;;24.85;12.85;;;;;;;;;;5137512;27;20464;-74
2022/10/23 05:43:38;;;;;;;20.05;13.48;;;;;;;;;;5137891;27;20057;-74
2022/10/23 05:46:24;;;;;;;22.48;13.48;;;;;;;;;;5137219;27;20030;-73
2022/10/23 05:49:09;;;;;;;21.55;12.80;;;;;;;;;;5137956;27;20019;-74
2022/10/23 05:51:55;;;;;;;18.48;12.82;;;;;;;;;;5139105;27;20019;-73
2022/10/23 05:54:41;;;;;;;23.73;12.60;;;;;;;;;;5139252;27;20024;-73
2022/10/23 05:57:26;;;;;;;20.52;12.55;;;;;;;;;;5123962;27;20007;-73
2022/10/23 06:00:12;;;;;;;28.00;13.40;;;;;;;;;;5138188;27;20094;-73
2022/10/23 06:02:59;;;;;;;21.83;12.55;;;;;;;;;;5138164;27;20506;-73
2022/10/23 06:05:48;;;;;;;19.67;11.55;;;;;;;;;;5136968;27;20070;-74
2022/10/23 06:08:34;;;;;;;18.80;12.55;;;;;;;;;;5138056;27;20019;-74
2022/10/23 06:11:20;;;;;;;17.88;11.95;;;;;;;;;;5122845;27;20102;-74
2022/10/23 06:14:06;;;;;;;20.80;12.05;;;;;;;;;;5137543;27;20026;-72
2022/10/23 06:16:51;;;;;;;23.52;12.30;;;;;;;;;;5123175;27;20034;-73
2022/10/23 06:19:37;;;;;;;22.58;12.57;;;;;;;;;;5137134;27;20156;-73
2022/10/23 06:22:22;;;;;;;21.75;11.23;;;;;;;;;;5137162;27;20080;-73
2022/10/23 06:25:08;;;;;;;18.38;11.90;;;;;;;;;;5137405;27;20015;-73
2022/10/23 06:27:54;;;;;;;20.30;11.63;;;;;;;;;;5137259;27;20027;-73
2022/10/23 06:30:39;;;;;;;17.73;11.48;;;;;;;;;;5123637;27;20106;-74
2022/10/23 06:33:25;;;;;;;20.38;11.20;;;;;;;;;;5137255;27;20038;-73
2022/10/23 06:36:11;;;;;;;18.08;11.30;;;;;;;;;;5136445;27;20063;-74
2022/10/23 06:38:57;;;;;;;19.95;10.95;;;;;;;;;;5123405;27;20039;-73
2022/10/23 06:41:44;;;;;;;21.50;10.30;;;;;;;;;;5137216;27;20034;-73
2022/10/23 06:44:29;;;;;;;18.20;10.55;;;;;;;;;;5137049;27;20094;-74
2022/10/23 06:47:15;;;;;;;21.13;11.02;;;;;;;;;;5136056;27;20038;-73
2022/10/23 06:50:01;;;;;;;14.32;9.60;;;;;;;;;;5123179;27;20031;-74
2022/10/23 06:52:46;;;;;;;16.77;9.07;;;;;;;;;;5136766;27;20015;-74
2022/10/23 06:55:32;;;;;;;16.90;8.73;;;;;;;;;;5138040;27;20023;-73
2022/10/23 06:58:18;;;;;;;13.30;8.50;;;;;;;;;;5122744;27;20011;-73
2022/10/23 07:01:05;;;;;;;13.85;8.25;;;;;;;;;;5136725;27;20008;-74
2022/10/23 07:03:50;;;;;;;14.80;7.40;;;;;;;;;;5140433;27;20057;-72
2022/10/23 07:06:36;;;;;;;14.15;7.35;;;;;;;;;;5141550;27;20019;-72
2022/10/23 07:09:22;;;;;;;9.55;6.03;;;;;;;;;;5143071;27;20113;-71
2022/10/23 07:12:07;;;;;;;12.70;6.38;;;;;;;;;;5152399;27;20019;-72
2022/10/23 07:14:53;;;;;;;16.95;6.38;;;;;;;;;;5139146;27;20027;-73
2022/10/23 07:17:38;;;;;;;12.32;6.15;;;;;;;;;;5147610;27;20049;-73
2022/10/23 07:20:24;;;;;;;13.95;6.03;;;;;;;;;;5148052;27;20011;-72
2022/10/23 07:23:10;;;;;;;9.10;5.50;;;;;;;;;;5138937;27;20091;-73
2022/10/23 07:26:02;;;;;;;10.95;5.63;;;;;;;;;;5138423;27;20053;-73
2022/10/23 07:28:50;;;;;;;7.13;5.13;;;;;;;;;;5138337;27;20034;-72
2022/10/23 07:31:35;;;;;;;8.30;5.28;;;;;;;;;;5138164;27;20030;-73
2022/10/23 07:34:21;;;;;;;12.38;4.70;;;;;;;;;;5137362;27;20058;-73
2022/10/23 07:37:07;;;;;;;15.70;5.45;;;;;;;;;;5136647;27;20051;-72
2022/10/23 07:39:52;;;;;;;8.35;4.35;;;;;;;;;;5139350;27;20015;-73
2022/10/23 07:42:38;;;;;;;7.00;4.40;;;;;;;;;;5122186;27;20455;-74
2022/10/23 07:45:24;;;;;;;9.48;4.45;;;;;;;;;;5122517;27;20035;-74
2022/10/23 07:48:09;;;;;;;8.13;4.22;;;;;;;;;;5135878;27;20016;-73
2022/10/23 07:51:09;;;;;;;12.25;4.10;;;;;;;;;;5122051;27;20464;-73
2022/10/23 07:53:55;;;;;;;8.05;4.05;;;;;;;;;;5137273;27;20049;-72
2022/10/23 07:56:40;;;;;;;29.23;5.38;;;;;;;;;;5136162;27;20084;-73
2022/10/23 07:59:26;;;;;;;7.20;3.83;;;;;;;;;;5136028;27;20445;-71
2022/10/23 08:02:13;;;;;;;7.38;3.90;;;;;;;;;;5136880;27;20047;-71
2022/10/23 08:04:58;;;;;;;5.75;3.70;;;;;;;;;;5151748;27;20031;-72
2022/10/23 08:07:44;;;;;;;13.00;3.88;;;;;;;;;;5138208;27;20026;-71
2022/10/23 08:10:30;;;;;;;7.78;4.78;;;;;;;;;;5136009;27;20492;-70
2022/10/23 08:13:16;;;;;;;16.38;7.57;;;;;;;;;;5135896;27;20333;-71
2022/10/23 08:16:01;;;;;;;9.43;4.57;;;;;;;;;;5136496;27;20091;-71
2022/10/23 08:18:48;;;;;;;17.65;8.48;;;;;;;;;;5135667;27;20030;-71
2022/10/23 08:21:34;;;;;;;12.65;6.78;;;;;;;;;;5136295;27;20395;-71
2022/10/23 08:24:19;;;;;;;8.52;4.68;;;;;;;;;;5136462;27;20031;-70
2022/10/23 08:27:05;;;;;;;9.10;4.28;;;;;;;;;;5134796;27;20019;-71
2022/10/23 08:29:50;;;;;;;8.85;3.95;;;;;;;;;;5135827;27;20023;-70
2022/10/23 08:32:36;;;;;;;5.25;3.42;;;;;;;;;;5120697;27;20019;-71
2022/10/23 08:35:22;;;;;;;4.97;3.08;;;;;;;;;;5135653;27;20080;-71
2022/10/23 08:38:07;;;;;;;10.55;3.30;;;;;;;;;;5134490;27;20062;-70
2022/10/23 08:40:53;;;;;;;10.60;3.55;;;;;;;;;;5135364;27;20464;-71
2022/10/23 08:43:42;;;;;;;7.88;3.25;;;;;;;;;;5135761;27;20047;-71
2022/10/23 08:46:30;;;;;;;6.00;3.28;;;;;;;;;;5136106;27;20025;-71
2022/10/23 08:49:18;;;;;;;9.25;3.45;;;;;;;;;;5135724;27;20015;-70
2022/10/23 08:52:10;;;;;;;9.15;3.25;;;;;;;;;;5135760;27;20015;-71
2022/10/23 08:54:59;;;;;;;6.43;3.25;;;;;;;;;;5134681;27;20023;-71
2022/10/23 08:57:48;;;;;;;7.57;3.20;;;;;;;;;;5135150;28;20441;-70
2022/10/23 09:00:34;;;;;;;13.20;3.40;;;;;;;;;;5134667;28;20439;-71
2022/10/23 09:03:20;;;;;;;11.23;3.40;;;;;;;;;;5135431;28;20023;-71
2022/10/23 09:06:17;;;;;;;10.13;3.40;;;;;;;;;;5135162;28;20084;-71
2022/10/23 09:09:14;;;;;;;6.70;3.17;;;;;;;;;;5135476;28;20016;-69
2022/10/23 09:12:04;;;;;;;8.93;3.10;;;;;;;;;;5135447;28;20105;-70
2022/10/23 09:15:06;;;;;;;8.02;3.53;;;;;;;;;;5121414;28;20015;-70
2022/10/23 09:17:54;;;;;;;7.80;2.78;;;;;;;;;;5134224;28;20030;-69
2022/10/23 09:20:41;;;;;;;4.78;2.92;;;;;;;;;;5135216;28;20390;-71
2022/10/23 09:23:26;;;;;;;6.35;2.88;;;;;;;;;;5135444;28;20023;-70
2022/10/23 09:26:16;;;;;;;4.88;2.67;;;;;;;;;;5135220;28;20027;-71
2022/10/23 09:29:13;;;;;;;7.50;3.00;;;;;;;;;;5135819;28;20065;-70
2022/10/23 09:31:59;;;;;;;7.07;2.83;;;;;;;;;;5134750;28;20397;-70
2022/10/23 09:34:52;;;;;;;7.22;2.75;;;;;;;;;;5135044;28;20080;-71
2022/10/23 09:37:44;;;;;;;7.53;3.00;;;;;;;;;;5134567;28;20123;-70
2022/10/23 09:40:35;;;;;;;5.85;3.00;;;;;;;;;;5134965;28;20020;-70
2022/10/23 09:43:24;;;;;;;7.05;3.00;;;;;;;;;;5135359;28;20019;-71
2022/10/23 09:46:10;;;;;;;14.57;2.90;;;;;;;;;;5134899;28;20019;-72
2022/10/23 09:48:56;;;;;;;3.45;2.42;;;;;;;;;;5135251;28;20023;-70
2022/10/23 09:52:02;;;;;;;12.07;2.92;;;;;;;;;;5134902;28;20031;-70
2022/10/23 09:54:49;;;;;;;6.05;2.78;;;;;;;;;;5134723;28;20019;-70
2022/10/23 09:57:36;;;;;;;5.78;2.58;;;;;;;;;;5135569;28;20023;-71
2022/10/23 10:00:24;;;;;;;7.05;2.92;;;;;;;;;;5134848;28;20334;-72
2022/10/23 10:03:18;;;;;;;17.52;6.68;;;;;;;;;;5135161;28;20015;-72
2022/10/23 10:06:03;;;;;;;11.18;6.03;;;;;;;;;;5134926;28;20084;-73
2022/10/23 10:08:51;;;;;;;9.43;4.30;;;;;;;;;;5119513;28;20023;-72
2022/10/23 10:11:53;;;;;;;18.45;4.45;;;;;;;;;;5137643;27;20038;-71
2022/10/23 10:14:51;;;;;;;11.30;3.00;;;;;;;;;;5138717;27;20106;-72
2022/10/23 10:17:42;;;;;;;8.70;2.40;;;;;;;;;;5138080;27;20026;-73
2022/10/23 10:20:36;;;;;;;6.10;2.42;;;;;;;;;;5139322;27;20497;-72
2022/10/23 10:23:28;;;;;;;6.35;2.80;;;;;;;;;;5137994;27;20054;-73
2022/10/23 10:26:21;;;;;;;3.28;2.30;;;;;;;;;;5123287;27;20027;-72
2022/10/23 10:29:30;;;;;;;4.25;2.20;;;;;;;;;;5137635;27;20418;-73
2022/10/23 10:32:34;;;;;;;10.15;2.33;;;;;;;;;;5123613;27;20023;-72
2022/10/23 10:35:32;;;;;;;3.72;2.20;;;;;;;;;;5137787;27;20119;-73
2022/10/23 10:38:36;;;;;;;4.15;2.20;;;;;;;;;;5137280;27;20039;-72
2022/10/23 10:41:43;;;;;;;7.40;2.13;;;;;;;;;;5138017;27;20015;-73
2022/10/23 10:44:48;;;;;;;4.63;1.98;;;;;;;;;;5123424;27;20562;-73
2022/10/23 10:47:36;;;;;;;3.60;1.90;;;;;;;;;;5136482;27;20023;-73
2022/10/23 10:50:40;;;;;;;5.20;1.95;;;;;;;;;;5122466;27;20015;-72
2022/10/23 10:53:45;;;;;;;6.28;1.80;;;;;;;;;;5122338;27;20102;-73
2022/10/23 10:56:32;;;;;;;2.33;2.00;;;;;;;;;;5136478;27;20059;-74
2022/10/23 10:59:23;;;;;;;3.58;2.00;;;;;;;;;;5122815;27;20023;-73
2022/10/23 11:02:27;;;;;;;6.28;2.30;;;;;;;;;;5138107;27;20091;-73
2022/10/23 11:05:19;;;;;;;3.75;2.30;;;;;;;;;;5122329;27;20106;-73
2022/10/23 11:08:13;;;;;;;3.17;2.22;;;;;;;;;;5136954;27;20436;-74
2022/10/23 11:11:02;;;;;;;4.97;1.80;;;;;;;;;;5136750;27;20038;-73
2022/10/23 11:13:49;;;;;;;9.38;2.25;;;;;;;;;;5137188;27;20028;-73
2022/10/23 11:16:36;;;;;;;4.47;2.20;;;;;;;;;;5123322;27;20026;-72
2022/10/23 11:19:24;;;;;;;6.10;2.35;;;;;;;;;;5123691;27;20019;-74
2022/10/23 11:22:28;;;;;;;2.33;1.85;;;;;;;;;;5136697;27;20023;-73
2022/10/23 11:25:27;;;;;;;3.58;2.00;;;;;;;;;;5136240;27;20507;-72
2022/10/23 11:28:31;;;;;;;5.20;2.30;;;;;;;;;;5137023;27;20452;-74
2022/10/23 11:31:23;;;;;;;9.48;2.00;;;;;;;;;;5123390;27;20119;-75
2022/10/23 11:34:16;;;;;;;6.18;2.55;;;;;;;;;;5137669;27;20015;-75
2022/10/23 11:37:03;;;;;;;3.50;1.80;;;;;;;;;;5138251;27;20058;-75
2022/10/23 11:40:01;;;;;;;3.05;1.80;;;;;;;;;;5137020;27;20056;-75
2022/10/23 11:42:47;;;;;;;4.93;2.00;;;;;;;;;;5123024;27;20019;-76
2022/10/23 11:45:37;;;;;;;7.35;1.80;;;;;;;;;;5122338;27;20019;-80
2022/10/23 11:48:43;;;;;;;6.60;1.70;;;;;;;;;;5136174;27;20031;-79
2022/10/23 11:51:36;;;;;;;4.38;1.70;;;;;;;;;;5121486;27;20065;-79
2022/10/23 11:54:24;;;;;;;6.40;2.15;;;;;;;;;;5118036;27;20035;-80
2022/10/23 11:57:14;;;;;;;4.10;2.08;;;;;;;;;;5121983;27;20102;-78
2022/10/23 12:00:00;;;;;;;4.85;2.20;;;;;;;;;;5121769;27;20030;-79
2022/10/23 12:02:49;;;;;;;6.00;2.03;;;;;;;;;;5136870;27;20047;-80
2022/10/23 12:05:37;;;;;;;7.00;2.10;;;;;;;;;;5136755;27;20015;-79
2022/10/23 12:08:25;;;;;;;3.55;1.88;;;;;;;;;;5136938;27;20398;-79
2022/10/23 12:11:27;;;;;;;3.25;2.17;;;;;;;;;;5135671;27;20171;-79
2022/10/23 12:14:26;;;;;;;5.18;2.95;;;;;;;;;;5136495;27;20061;-79
2022/10/23 12:17:21;;;;;;;5.07;2.70;;;;;;;;;;5136113;27;20019;-79
2022/10/23 12:20:06;;;;;;;4.07;1.75;;;;;;;;;;5120957;27;20106;-79
2022/10/23 12:22:55;;;;;;;7.60;2.38;;;;;;;;;;5135806;27;20024;-79
2022/10/23 12:25:54;;;;;;;4.30;2.17;;;;;;;;;;5121203;27;20027;-79
2022/10/23 12:28:49;;;;;;;4.60;2.28;;;;;;;;;;5122182;27;20102;-79
2022/10/23 12:31:44;;;;;;;3.63;2.33;;;;;;;;;;5137109;27;20278;-79
2022/10/23 12:34:48;;;;;;;5.30;2.20;;;;;;;;;;5136059;27;20027;-79
2022/10/23 12:37:36;;;;;;;4.38;2.10;;;;;;;;;;5128038;27;20372;-80
2022/10/23 12:40:28;;;;;;;3.60;2.30;;;;;;;;;;5135946;27;20444;-81
2022/10/23 12:43:22;;;;;;;3.55;2.33;;;;;;;;;;5139379;27;20019;-79
2022/10/23 12:46:17;;;;;;;3.20;2.20;;;;;;;;;;5134390;27;20023;-79
2022/10/23 12:49:10;;;;;;;3.80;2.15;;;;;;;;;;5135875;27;20019;-79
2022/10/23 12:52:03;;;;;;;3.45;1.75;;;;;;;;;;5136157;27;20023;-80
2022/10/23 12:54:49;;;;;;;2.97;2.35;;;;;;;;;;5138589;27;20026;-79
2022/10/23 12:57:42;;;;;;;5.28;1.90;;;;;;;;;;5142616;27;20451;-78
2022/10/23 13:00:28;;;;;;;16.85;3.47;;;;;;;;;;5141762;28;20031;-80
2022/10/23 13:03:13;;;;;;;6.28;2.35;;;;;;;;;;5136266;28;20075;-80
2022/10/23 13:06:03;;;;;;;12.18;3.38;;;;;;;;;;5135371;28;20028;-80
2022/10/23 13:08:49;;;;;;;4.28;2.80;;;;;;;;;;5136095;28;20030;-78
2022/10/23 13:11:35;;;;;;;13.18;2.55;;;;;;;;;;5135849;28;20023;-78
2022/10/23 13:14:28;;;;;;;8.82;2.60;;;;;;;;;;5136873;28;20110;-81
2022/10/23 13:17:14;;;;;;;3.53;2.47;;;;;;;;;;5135845;28;20453;-80
2022/10/23 13:20:18;;;;;;;4.43;2.50;;;;;;;;;;5134868;28;20061;-80
2022/10/23 13:23:06;;;;;;;4.18;2.70;;;;;;;;;;5135128;28;20112;-80
2022/10/23 13:25:53;;;;;;;10.27;2.30;;;;;;;;;;5120704;28;20034;-80
2022/10/23 13:28:39;;;;;;;2.95;2.10;;;;;;;;;;5134602;28;20019;-79
2022/10/23 13:31:25;;;;;;;6.32;1.92;;;;;;;;;;5142278;28;20033;-80
2022/10/23 13:34:16;;;;;;;3.78;2.10;;;;;;;;;;5137525;28;20038;-80
2022/10/23 13:37:19;;;;;;;4.38;2.40;;;;;;;;;;5135294;28;20028;-80
2022/10/23 13:40:22;;;;;;;5.03;2.40;;;;;;;;;;5135436;28;20015;-80
2022/10/23 13:43:12;;;;;;;2.53;2.08;;;;;;;;;;5139026;28;20019;-80
2022/10/23 13:45:58;;;;;;;4.47;2.30;;;;;;;;;;5138045;27;20019;-81
2022/10/23 13:48:44;;;;;;;4.45;2.58;;;;;;;;;;5143707;27;20102;-79
2022/10/23 13:51:33;;;;;;;7.32;2.55;;;;;;;;;;5139996;27;20026;-79
2022/10/23 13:54:20;;;;;;;3.25;2.15;;;;;;;;;;5155805;27;20075;-80
2022/10/23 13:57:10;;;;;;;2.95;1.92;;;;;;;;;;5139953;27;20015;-80
2022/10/23 13:59:55;;;;;;;2.53;2.20;;;;;;;;;;5124217;27;20084;-81
2022/10/23 14:02:41;;;;;;;5.65;2.88;;;;;;;;;;5139062;27;20080;-81
2022/10/23 14:05:27;;;;;;;6.55;3.55;;;;;;;;;;5125307;27;20019;-80
2022/10/23 14:08:12;;;;;;;6.40;2.80;;;;;;;;;;5139451;27;20075;-81
2022/10/23 14:10:58;;;;;;;5.78;2.47;;;;;;;;;;5139509;27;20051;-81
2022/10/23 14:13:44;;;;;;;5.10;2.60;;;;;;;;;;5137729;27;20033;-79
2022/10/23 14:16:29;;;;;;;5.05;2.38;;;;;;;;;;5124724;27;20080;-80
2022/10/23 14:19:15;;;;;;;3.70;2.50;;;;;;;;;;5138119;27;20464;-80
2022/10/23 14:22:01;;;;;;;3.33;2.38;;;;;;;;;;5124365;27;20027;-80
2022/10/23 14:24:46;;;;;;;4.18;2.30;;;;;;;;;;5139174;27;20026;-80
2022/10/23 14:27:32;;;;;;;6.72;2.75;;;;;;;;;;5138304;27;20092;-80
2022/10/23 14:30:17;;;;;;;6.10;2.33;;;;;;;;;;5137837;27;20375;-80
2022/10/23 14:33:03;;;;;;;3.83;2.13;;;;;;;;;;5124040;27;20436;-80
2022/10/23 14:35:49;;;;;;;3.00;2.35;;;;;;;;;;5138329;27;20114;-80
2022/10/23 14:38:35;;;;;;;3.53;2.15;;;;;;;;;;5123304;27;20066;-80
2022/10/23 14:41:21;;;;;;;5.63;2.40;;;;;;;;;;5137349;27;20066;-80
2022/10/23 14:44:06;;;;;;;4.20;2.63;;;;;;;;;;5137838;27;20027;-81
2022/10/23 14:46:52;;;;;;;6.93;3.10;;;;;;;;;;5137943;27;20176;-78
2022/10/23 14:49:39;;;;;;;4.15;2.67;;;;;;;;;;5137888;27;20019;-77
2022/10/23 14:52:24;;;;;;;3.55;2.30;;;;;;;;;;5122984;27;20330;-77
2022/10/23 14:55:10;;;;;;;3.25;2.10;;;;;;;;;;5137853;27;20027;-78
2022/10/23 14:57:56;;;;;;;4.68;2.25;;;;;;;;;;5135846;27;20037;-78
2022/10/23 15:00:41;;;;;;;5.18;3.70;;;;;;;;;;5137776;27;20051;-79
2022/10/23 15:03:27;;;;;;;6.78;3.83;;;;;;;;;;5137287;27;20021;-78
2022/10/23 15:06:13;;;;;;;4.95;3.35;;;;;;;;;;5137505;27;20023;-80
2022/10/23 15:08:58;;;;;;;5.85;3.20;;;;;;;;;;5122598;27;20027;-78
2022/10/23 15:11:44;;;;;;;6.25;3.63;;;;;;;;;;5122514;27;20023;-79
2022/10/23 15:14:30;;;;;;;5.35;3.30;;;;;;;;;;5137382;27;20019;-75
2022/10/23 15:17:15;;;;;;;4.45;2.88;;;;;;;;;;5137975;27;20012;-77
2022/10/23 15:20:01;;;;;;;5.80;2.95;;;;;;;;;;5138485;27;20011;-80
2022/10/23 15:22:47;;;;;;;4.78;2.50;;;;;;;;;;5122657;27;20026;-79
2022/10/23 15:25:32;;;;;;;5.20;2.35;;;;;;;;;;5138073;27;20058;-80
2022/10/23 15:28:18;;;;;;;3.85;2.70;;;;;;;;;;5122801;27;20047;-78
2022/10/23 15:31:04;;;;;;;3.60;2.47;;;;;;;;;;5122403;27;20016;-80
2022/10/23 15:33:50;;;;;;;5.53;2.33;;;;;;;;;;5137686;27;20046;-80
2022/10/23 15:36:35;;;;;;;5.57;2.65;;;;;;;;;;5136612;27;20125;-81
2022/10/23 15:39:22;;;;;;;5.82;2.80;;;;;;;;;;5136519;27;20445;-79
2022/10/23 15:42:08;;;;;;;4.05;2.50;;;;;;;;;;5136153;27;20406;-80
2022/10/23 15:44:54;;;;;;;4.93;2.70;;;;;;;;;;5137458;27;20394;-77
2022/10/23 15:47:39;;;;;;;4.50;2.97;;;;;;;;;;5136250;27;20027;-76
2022/10/23 15:50:25;;;;;;;5.43;3.20;;;;;;;;;;5137067;27;20057;-77
2022/10/23 15:53:11;;;;;;;9.00;4.93;;;;;;;;;;5137276;27;20349;-77
2022/10/23 15:55:59;;;;;;;9.82;5.35;;;;;;;;;;5136094;27;20114;-78
2022/10/23 15:58:45;;;;;;;11.27;6.88;;;;;;;;;;5121950;27;20023;-77
2022/10/23 16:01:30;;;;;;;8.32;5.43;;;;;;;;;;5137143;27;20015;-77
2022/10/23 16:04:16;;;;;;;7.03;4.35;;;;;;;;;;5135839;27;20027;-77
2022/10/23 16:07:02;;;;;;;5.90;3.42;;;;;;;;;;5121733;27;20433;-77
2022/10/23 16:09:47;;;;;;;7.63;3.17;;;;;;;;;;5136435;27;20026;-80
2022/10/23 16:12:33;;;;;;;5.85;2.70;;;;;;;;;;5136544;27;20019;-80
2022/10/23 16:15:18;;;;;;;5.20;2.80;;;;;;;;;;5136051;27;20398;-80
2022/10/23 16:18:05;;;;;;;5.72;2.67;;;;;;;;;;5136543;27;20102;-80
2022/10/23 16:20:53;;;;;;;5.00;2.97;;;;;;;;;;5136075;27;20361;-80
2022/10/23 16:23:39;;;;;;;5.40;2.60;;;;;;;;;;5121291;27;20080;-80
2022/10/23 16:26:25;;;;;;;6.88;2.70;;;;;;;;;;5136102;27;20072;-80
2022/10/23 16:29:10;;;;;;;9.23;2.70;;;;;;;;;;5136461;27;20015;-80
2022/10/23 16:31:58;;;;;;;4.60;2.60;;;;;;;;;;5136541;27;20027;-81
2022/10/23 16:34:44;;;;;;;10.32;3.90;;;;;;;;;;5136576;27;20022;-80
2022/10/23 16:37:30;;;;;;;5.57;3.85;;;;;;;;;;5135600;27;20077;-80